createdAt,value
2023-03-18T00:01:10.410Z,11.32
2023-03-18T00:03:38.496Z,11.37
2023-03-18T00:06:12.438Z,11.33
2023-03-18T00:08:41.948Z,11.28
2023-03-18T00:11:11.169Z,11.33
2023-03-18T00:13:38.094Z,11.31
2023-03-18T00:16:07.053Z,11.23
2023-03-18T00:18:35.255Z,11.28
2023-03-18T00:21:02.382Z,11.22
2023-03-18T00:23:29.370Z,11.20
2023-03-18T00:25:58.259Z,11.24
2023-03-18T00:28:26.023Z,11.06
2023-03-18T00:30:54.459Z,11.26
2023-03-18T00:33:21.568Z,11.07
2023-03-18T00:35:48.636Z,11.22
2023-03-18T00:38:20.782Z,11.15
2023-03-18T00:41:04.225Z,11.17
2023-03-18T00:43:33.864Z,10.97
2023-03-18T00:46:01.163Z,11.15
2023-03-18T00:48:28.217Z,10.90
2023-03-18T00:50:55.100Z,11.08
2023-03-18T00:53:23.720Z,11.02
2023-03-18T00:55:50.543Z,11.06
2023-03-18T00:58:17.335Z,11.01
2023-03-18T01:00:44.284Z,11.01
2023-03-18T01:03:11.221Z,10.97
2023-03-18T01:05:38.211Z,10.96
2023-03-18T01:08:05.751Z,10.87
2023-03-18T01:10:33.649Z,10.83
2023-03-18T01:13:01.392Z,10.93
2023-03-18T01:15:28.386Z,10.83
2023-03-18T01:17:56.994Z,10.88
2023-03-18T01:20:25.465Z,10.76
2023-03-18T01:22:52.521Z,10.60
2023-03-18T01:25:19.434Z,10.69
2023-03-18T01:27:46.548Z,10.68
2023-03-18T01:30:14.095Z,10.83
2023-03-18T01:32:42.419Z,10.80
2023-03-18T01:35:10.486Z,10.76
2023-03-18T01:37:37.669Z,10.75
2023-03-18T01:40:07.118Z,10.61
2023-03-18T01:42:34.308Z,10.54
2023-03-18T01:45:25.639Z,10.68
2023-03-18T01:47:52.626Z,10.58
2023-03-18T01:50:33.344Z,10.62
2023-03-18T01:53:08.932Z,10.62
2023-03-18T01:55:37.913Z,10.61
2023-03-18T01:58:19.977Z,10.58
2023-03-18T02:00:58.068Z,10.56
2023-03-18T02:03:27.538Z,10.55
2023-03-18T02:05:55.315Z,10.48
2023-03-18T02:08:22.116Z,10.53
2023-03-18T02:10:50.129Z,10.50
2023-03-18T02:13:18.475Z,10.50
2023-03-18T02:15:55.768Z,10.51
2023-03-18T02:18:40.019Z,10.39
2023-03-18T02:21:33.636Z,10.48
2023-03-18T02:24:20.730Z,10.46
2023-03-18T02:27:00.249Z,10.47
2023-03-18T02:29:31.284Z,10.47
2023-03-18T02:32:03.295Z,10.38
2023-03-18T02:34:30.884Z,10.38
2023-03-18T02:36:57.899Z,10.38
2023-03-18T02:39:24.814Z,10.37
2023-03-18T02:41:52.577Z,10.46
2023-03-18T02:44:20.670Z,10.41
2023-03-18T02:46:57.742Z,10.45
2023-03-18T02:49:27.651Z,10.26
2023-03-18T02:51:55.208Z,10.23
2023-03-18T02:54:31.888Z,10.37
2023-03-18T02:56:58.820Z,10.30
2023-03-18T02:59:25.970Z,10.40
2023-03-18T03:01:54.845Z,10.24
2023-03-18T03:04:25.481Z,10.26
2023-03-18T03:06:53.284Z,10.35
2023-03-18T03:09:21.772Z,10.27
2023-03-18T03:11:48.995Z,10.20
2023-03-18T03:14:17.210Z,10.13
2023-03-18T03:16:44.168Z,10.22
2023-03-18T03:19:12.184Z,10.22
2023-03-18T03:21:39.123Z,10.11
2023-03-18T03:24:07.052Z,10.28
2023-03-18T03:26:35.009Z,10.27
2023-03-18T03:29:04.524Z,10.21
2023-03-18T03:31:31.719Z,10.00
2023-03-18T03:33:58.829Z,9.94
2023-03-18T03:36:25.650Z,9.72
2023-03-18T03:38:52.466Z,9.79
2023-03-18T03:41:19.617Z,9.63
2023-03-18T03:43:46.418Z,9.88
2023-03-18T03:46:13.686Z,9.84
2023-03-18T03:48:40.613Z,9.48
2023-03-18T03:51:07.918Z,9.72
2023-03-18T03:53:36.132Z,9.72
2023-03-18T03:56:04.457Z,9.76
2023-03-18T03:58:31.439Z,9.79
2023-03-18T04:00:58.332Z,9.74
2023-03-18T04:03:25.623Z,9.84
2023-03-18T04:05:53.586Z,9.78
2023-03-18T04:08:20.701Z,9.85
2023-03-18T04:10:47.653Z,9.78
2023-03-18T04:13:14.479Z,9.86
2023-03-18T04:15:41.308Z,9.72
2023-03-18T04:18:08.957Z,9.63
2023-03-18T04:20:37.605Z,9.57
2023-03-18T04:23:06.137Z,9.51
2023-03-18T04:25:33.221Z,9.21
2023-03-18T04:28:00.114Z,9.36
2023-03-18T04:30:27.506Z,9.51
2023-03-18T04:32:54.993Z,9.55
2023-03-18T04:35:23.333Z,9.58
2023-03-18T04:37:50.622Z,9.62
2023-03-18T04:40:18.293Z,9.57
2023-03-18T04:42:47.732Z,9.68
2023-03-18T04:45:17.141Z,9.57
2023-03-18T04:47:45.459Z,9.66
2023-03-18T04:50:14.227Z,9.53
2023-03-18T04:52:42.754Z,9.67
2023-03-18T04:55:10.834Z,9.68
2023-03-18T04:57:38.713Z,9.61
2023-03-18T05:00:12.238Z,9.59
2023-03-18T05:02:40.056Z,9.52
2023-03-18T05:05:08.133Z,9.63
2023-03-18T05:07:35.005Z,9.55
2023-03-18T05:10:01.989Z,9.42
2023-03-18T05:12:28.777Z,9.58
2023-03-18T05:14:55.789Z,9.58
2023-03-18T05:17:22.660Z,9.55
2023-03-18T05:19:49.892Z,9.54
2023-03-18T05:22:19.599Z,9.51
2023-03-18T05:24:46.817Z,9.54
2023-03-18T05:27:17.160Z,9.54
2023-03-18T05:29:44.467Z,9.52
2023-03-18T05:32:12.673Z,9.49
2023-03-18T05:34:40.945Z,9.39
2023-03-18T05:37:11.317Z,9.41
2023-03-18T05:39:38.741Z,9.34
2023-03-18T05:42:06.474Z,9.37
2023-03-18T05:44:34.031Z,9.34
2023-03-18T05:47:01.679Z,9.17
2023-03-18T05:49:28.925Z,9.18
2023-03-18T05:51:55.827Z,9.27
2023-03-18T05:54:23.396Z,9.26
2023-03-18T05:56:52.387Z,9.13
2023-03-18T05:59:20.020Z,9.08
2023-03-18T06:01:47.236Z,9.19
2023-03-18T06:04:14.050Z,9.17
2023-03-18T06:06:41.133Z,9.14
2023-03-18T06:09:10.820Z,9.09
2023-03-18T06:11:38.147Z,9.09
2023-03-18T06:14:06.819Z,9.05
2023-03-18T06:16:35.261Z,8.97
2023-03-18T06:19:03.964Z,9.02
2023-03-18T06:21:33.026Z,8.95
2023-03-18T06:24:01.527Z,9.00
2023-03-18T06:26:29.064Z,8.96
2023-03-18T06:28:58.397Z,8.92
2023-03-18T06:31:25.951Z,8.97
2023-03-18T06:33:53.183Z,8.84
2023-03-18T06:36:22.513Z,8.83
2023-03-18T06:38:49.603Z,8.83
2023-03-18T06:41:16.950Z,8.94
2023-03-18T06:43:44.636Z,8.98
2023-03-18T06:46:11.516Z,8.97
2023-03-18T06:48:40.348Z,8.88
2023-03-18T06:51:08.250Z,8.85
2023-03-18T06:53:36.548Z,8.73
2023-03-18T06:56:06.469Z,8.85
2023-03-18T06:58:33.699Z,8.90
2023-03-18T07:01:01.451Z,8.90
2023-03-18T07:03:28.309Z,8.83
2023-03-18T07:05:56.071Z,8.93
2023-03-18T07:08:23.267Z,8.77
2023-03-18T07:10:53.557Z,8.95
2023-03-18T07:13:21.353Z,8.94
2023-03-18T07:15:48.686Z,8.97
2023-03-18T07:18:15.534Z,8.98
2023-03-18T07:20:42.580Z,9.00
2023-03-18T07:23:10.542Z,8.96
2023-03-18T07:25:37.347Z,9.03
2023-03-18T07:28:05.683Z,9.01
2023-03-18T07:30:33.285Z,8.97
2023-03-18T07:33:00.985Z,9.09
2023-03-18T07:35:28.511Z,9.02
2023-03-18T07:37:55.578Z,9.11
2023-03-18T07:40:22.797Z,9.12
2023-03-18T07:42:51.586Z,9.15
2023-03-18T07:45:18.480Z,9.09
2023-03-18T07:47:47.096Z,9.12
2023-03-18T07:50:14.107Z,9.13
2023-03-18T07:52:40.924Z,9.19
2023-03-18T07:55:09.129Z,9.15
2023-03-18T07:57:36.717Z,9.23
2023-03-18T08:00:06.110Z,9.24
2023-03-18T08:02:33.953Z,9.27
2023-03-18T08:05:00.828Z,9.29
2023-03-18T08:07:27.714Z,9.25
2023-03-18T08:09:54.553Z,9.33
2023-03-18T08:12:21.659Z,9.26
2023-03-18T08:14:49.701Z,9.38
2023-03-18T08:17:17.075Z,9.41
2023-03-18T08:19:44.039Z,9.37
2023-03-18T08:22:11.306Z,9.46
2023-03-18T08:24:38.575Z,9.48
2023-03-18T08:27:06.089Z,9.47
2023-03-18T08:29:32.913Z,9.48
2023-03-18T08:31:59.739Z,9.57
2023-03-18T08:34:26.584Z,9.62
2023-03-18T08:36:53.535Z,9.65
2023-03-18T08:39:20.973Z,9.63
2023-03-18T08:41:48.761Z,9.72
2023-03-18T08:44:16.451Z,9.84
2023-03-18T08:46:43.268Z,9.84
2023-03-18T08:49:12.141Z,9.87
2023-03-18T08:51:39.929Z,9.89
2023-03-18T08:54:08.217Z,9.78
2023-03-18T08:56:35.215Z,10.00
2023-03-18T08:59:02.041Z,9.98
2023-03-18T09:01:28.885Z,9.92
2023-03-18T09:03:57.832Z,10.20
2023-03-18T09:06:24.654Z,10.07
2023-03-18T09:08:52.099Z,10.26
2023-03-18T09:11:18.987Z,10.25
2023-03-18T09:13:45.840Z,10.40
2023-03-18T09:16:12.833Z,10.45
2023-03-18T09:18:42.771Z,10.41
2023-03-18T09:21:12.066Z,10.58
2023-03-18T09:23:38.879Z,10.70
2023-03-18T09:26:05.793Z,10.75
2023-03-18T09:28:32.592Z,10.77
2023-03-18T09:30:59.483Z,10.77
2023-03-18T09:33:26.624Z,10.93
2023-03-18T09:35:53.904Z,10.99
2023-03-18T09:38:21.357Z,11.05
2023-03-18T09:41:08.359Z,11.13
2023-03-18T09:43:54.735Z,11.24
2023-03-18T09:46:53.555Z,11.31
2023-03-18T09:49:46.501Z,11.25
2023-03-18T09:52:45.310Z,11.49
2023-03-18T09:55:40.221Z,11.50
2023-03-18T09:58:25.670Z,11.64
2023-03-18T10:01:01.082Z,11.71
2023-03-18T10:03:33.990Z,11.70
2023-03-18T10:06:06.897Z,11.75
2023-03-18T10:09:10.904Z,11.89
2023-03-18T10:11:46.461Z,11.93
2023-03-18T10:14:35.810Z,12.02
2023-03-18T10:17:14.896Z,12.16
2023-03-18T10:19:50.000Z,12.13
2023-03-18T10:22:43.917Z,12.25
2023-03-18T10:25:27.134Z,12.38
2023-03-18T10:28:03.435Z,12.49
2023-03-18T10:30:43.364Z,12.55
2023-03-18T10:33:18.989Z,12.63
2023-03-18T10:35:51.394Z,12.60
2023-03-18T10:38:51.707Z,12.72
2023-03-18T10:41:28.398Z,12.85
2023-03-18T10:43:56.669Z,13.14
2023-03-18T10:46:25.594Z,13.36
2023-03-18T10:48:59.380Z,13.43
2023-03-18T10:52:15.287Z,13.44
2023-03-18T10:54:52.478Z,13.48
2023-03-18T10:57:21.944Z,13.48
2023-03-18T10:59:51.335Z,13.55
2023-03-18T11:02:26.870Z,13.57
2023-03-18T11:05:26.688Z,13.77
2023-03-18T11:08:05.534Z,14.10
2023-03-18T11:10:46.119Z,14.08
2023-03-18T11:13:18.036Z,14.55
2023-03-18T11:15:53.247Z,14.32
2023-03-18T11:18:24.882Z,14.35
2023-03-18T11:21:02.979Z,14.44
2023-03-18T11:23:48.523Z,14.45
2023-03-18T11:26:24.240Z,14.42
2023-03-18T11:28:59.031Z,14.32
2023-03-18T11:31:25.923Z,14.33
2023-03-18T11:34:00.588Z,14.54
2023-03-18T11:36:28.321Z,14.72
2023-03-18T11:39:05.533Z,15.30
2023-03-18T11:41:32.366Z,15.57
2023-03-18T11:44:18.867Z,15.65
2023-03-18T11:47:00.843Z,15.61
2023-03-18T11:49:29.474Z,15.71
2023-03-18T11:52:28.791Z,15.59
2023-03-18T11:55:18.629Z,15.52
2023-03-18T11:57:57.618Z,15.63
2023-03-18T12:00:55.305Z,15.63
2023-03-18T12:03:54.351Z,15.64
2023-03-18T12:06:28.612Z,15.74
2023-03-18T12:09:49.104Z,15.82
2023-03-18T12:13:27.009Z,15.78
2023-03-18T12:16:50.487Z,15.79
2023-03-18T12:19:39.642Z,16.01
2023-03-18T12:22:41.991Z,16.07
2023-03-18T12:25:58.189Z,16.04
2023-03-18T12:29:07.507Z,16.08
2023-03-18T12:31:59.949Z,16.12
2023-03-18T12:34:51.618Z,16.34
2023-03-18T12:37:40.701Z,16.24
2023-03-18T12:40:15.772Z,16.56
2023-03-18T12:42:45.289Z,16.43
2023-03-18T12:45:21.739Z,16.46
2023-03-18T12:47:55.300Z,16.40
2023-03-18T12:51:04.079Z,16.33
2023-03-18T12:53:38.393Z,16.38
2023-03-18T12:56:13.598Z,16.43
2023-03-18T12:59:18.398Z,16.48
2023-03-18T13:01:57.463Z,16.34
2023-03-18T13:04:30.308Z,16.64
2023-03-18T13:07:03.898Z,16.79
2023-03-18T13:09:44.532Z,16.76
2023-03-18T13:12:23.421Z,16.82
2023-03-18T13:15:22.917Z,17.00
2023-03-18T13:17:54.003Z,16.99
2023-03-18T13:20:25.757Z,17.15
2023-03-18T13:23:11.266Z,17.22
2023-03-18T13:25:48.940Z,17.28
2023-03-18T13:29:00.032Z,17.24
2023-03-18T13:31:47.370Z,17.80
2023-03-18T13:34:26.472Z,17.65
2023-03-18T13:37:26.837Z,17.36
2023-03-18T13:40:05.633Z,17.40
2023-03-18T13:42:36.116Z,17.45
2023-03-18T13:45:29.803Z,17.42
2023-03-18T13:48:00.809Z,17.49
2023-03-18T13:50:42.247Z,17.50
2023-03-18T13:53:28.296Z,17.33
2023-03-18T13:55:58.082Z,17.49
2023-03-18T13:58:33.876Z,17.53
2023-03-18T14:01:00.561Z,17.55
2023-03-18T14:03:44.541Z,17.52
2023-03-18T14:06:19.033Z,17.50
2023-03-18T14:08:52.701Z,17.56
2023-03-18T14:11:37.317Z,17.62
2023-03-18T14:14:06.114Z,17.47
2023-03-18T14:16:37.598Z,17.55
2023-03-18T14:19:32.515Z,17.45
2023-03-18T14:22:22.093Z,17.41
2023-03-18T14:25:17.781Z,17.46
2023-03-18T14:28:07.319Z,17.41
2023-03-18T14:30:37.367Z,17.39
2023-03-18T14:33:33.112Z,17.25
2023-03-18T14:36:10.255Z,17.31
2023-03-18T14:38:50.636Z,17.29
2023-03-18T14:41:24.823Z,17.04
2023-03-18T14:44:22.807Z,17.28
2023-03-18T14:46:59.345Z,17.20
2023-03-18T14:49:42.635Z,17.18
2023-03-18T14:52:32.056Z,17.11
2023-03-18T14:55:05.384Z,17.14
2023-03-18T14:57:32.203Z,17.32
2023-03-18T15:00:00.383Z,17.30
2023-03-18T15:02:34.038Z,17.23
2023-03-18T15:05:02.015Z,17.21
2023-03-18T15:07:36.840Z,17.26
2023-03-18T15:10:13.344Z,17.11
2023-03-18T15:12:40.483Z,17.22
2023-03-18T15:15:14.782Z,17.23
2023-03-18T15:17:48.855Z,17.23
2023-03-18T15:20:16.895Z,17.18
2023-03-18T15:22:44.561Z,17.07
2023-03-18T15:25:20.479Z,17.25
2023-03-18T15:27:48.345Z,17.19
2023-03-18T15:30:29.217Z,17.25
2023-03-18T15:33:06.580Z,17.22
2023-03-18T15:35:34.008Z,17.19
2023-03-18T15:38:08.881Z,17.22
2023-03-18T15:40:44.524Z,17.24
2023-03-18T15:43:11.191Z,17.24
2023-03-18T15:45:52.843Z,17.20
2023-03-18T15:48:36.697Z,17.16
2023-03-18T15:51:10.669Z,17.07
2023-03-18T15:53:47.607Z,17.20
2023-03-18T15:56:36.669Z,17.25
2023-03-18T15:59:14.453Z,17.25
2023-03-18T16:01:41.278Z,17.04
2023-03-18T16:04:12.753Z,17.19
2023-03-18T16:06:40.362Z,17.12
2023-03-18T16:09:22.806Z,17.16
2023-03-18T16:12:20.509Z,17.11
2023-03-18T16:14:49.691Z,17.11
2023-03-18T16:17:21.830Z,17.12
2023-03-18T16:19:54.077Z,17.15
2023-03-18T16:22:22.073Z,17.19
2023-03-18T16:24:49.322Z,17.30
2023-03-18T16:27:45.374Z,17.19
2023-03-18T16:30:33.932Z,17.07
2023-03-18T16:33:00.936Z,17.06
2023-03-18T16:35:34.131Z,17.08
2023-03-18T16:38:01.656Z,16.94
2023-03-18T16:40:31.366Z,16.98
2023-03-18T16:42:58.472Z,16.94
2023-03-18T16:45:30.503Z,16.90
2023-03-18T16:48:02.093Z,16.89
2023-03-18T16:50:33.973Z,16.69
2023-03-18T16:53:00.968Z,16.97
2023-03-18T16:55:27.957Z,16.97
2023-03-18T16:57:59.016Z,16.86
2023-03-18T17:00:32.799Z,16.82
2023-03-18T17:03:01.341Z,16.79
2023-03-18T17:05:29.057Z,16.69
2023-03-18T17:07:55.892Z,16.70
2023-03-18T17:10:26.173Z,16.76
2023-03-18T17:13:00.007Z,16.51
2023-03-18T17:15:31.808Z,16.49
2023-03-18T17:17:59.710Z,16.53
2023-03-18T17:20:32.473Z,16.51
2023-03-18T17:23:00.976Z,16.48
2023-03-18T17:25:30.415Z,16.44
2023-03-18T17:28:06.021Z,16.35
2023-03-18T17:30:36.296Z,16.17
2023-03-18T17:33:04.514Z,16.32
2023-03-18T17:35:31.727Z,16.21
2023-03-18T17:37:59.185Z,16.21
2023-03-18T17:40:29.811Z,16.09
2023-03-18T17:42:56.768Z,16.12
2023-03-18T17:45:33.424Z,16.17
2023-03-18T17:48:21.373Z,16.13
2023-03-18T17:50:54.190Z,16.08
2023-03-18T17:53:37.392Z,16.04
2023-03-18T17:56:07.754Z,15.87
2023-03-18T17:58:35.227Z,15.91
2023-03-18T18:01:08.889Z,15.85
2023-03-18T18:03:38.709Z,15.90
2023-03-18T18:06:06.771Z,15.86
2023-03-18T18:08:34.228Z,15.66
2023-03-18T18:11:24.287Z,15.60
2023-03-18T18:13:54.728Z,15.66
2023-03-18T18:16:21.849Z,15.52
2023-03-18T18:18:50.079Z,15.56
2023-03-18T18:21:21.168Z,15.43
2023-03-18T18:23:48.646Z,15.51
2023-03-18T18:26:21.993Z,15.43
2023-03-18T18:28:52.019Z,15.19
2023-03-18T18:31:21.973Z,15.35
2023-03-18T18:33:50.399Z,15.29
2023-03-18T18:36:18.044Z,15.19
2023-03-18T18:38:45.473Z,15.23
2023-03-18T18:41:12.622Z,15.18
2023-03-18T18:43:39.481Z,15.09
2023-03-18T18:46:14.815Z,15.07
2023-03-18T18:48:43.945Z,14.88
2023-03-18T18:51:21.645Z,14.83
2023-03-18T18:53:52.317Z,14.85
2023-03-18T18:56:32.052Z,14.74
2023-03-18T18:58:59.232Z,14.73
2023-03-18T19:01:26.534Z,14.70
2023-03-18T19:03:54.060Z,14.59
2023-03-18T19:06:30.897Z,14.62
2023-03-18T19:09:03.812Z,14.62
2023-03-18T19:11:30.668Z,14.56
2023-03-18T19:14:27.290Z,14.49
2023-03-18T19:16:58.361Z,14.54
2023-03-18T19:19:33.024Z,14.43
2023-03-18T19:22:00.333Z,14.51
2023-03-18T19:24:30.494Z,14.38
2023-03-18T19:27:01.326Z,14.37
2023-03-18T19:29:28.630Z,14.20
2023-03-18T19:31:55.684Z,14.26
2023-03-18T19:34:23.728Z,14.28
2023-03-18T19:36:54.408Z,14.30
2023-03-18T19:39:22.600Z,14.18
2023-03-18T19:41:49.769Z,14.14
2023-03-18T19:44:23.277Z,14.17
2023-03-18T19:46:55.447Z,13.94
2023-03-18T19:49:33.588Z,14.12
2023-03-18T19:52:06.911Z,14.04
2023-03-18T19:54:36.582Z,14.04
2023-03-18T19:57:15.229Z,13.99
2023-03-18T19:59:43.314Z,13.96
2023-03-18T20:02:27.574Z,13.96
2023-03-18T20:05:00.776Z,13.88
2023-03-18T20:07:30.732Z,13.80
2023-03-18T20:09:57.590Z,13.83
2023-03-18T20:12:37.308Z,13.80
2023-03-18T20:15:15.023Z,13.93
2023-03-18T20:17:45.461Z,13.89
2023-03-18T20:20:21.057Z,13.86
2023-03-18T20:23:01.848Z,13.85
2023-03-18T20:25:35.952Z,13.82
2023-03-18T20:28:10.118Z,13.74
2023-03-18T20:30:39.501Z,13.81
2023-03-18T20:33:07.250Z,13.80
2023-03-18T20:35:38.100Z,13.77
2023-03-18T20:38:38.751Z,13.67
2023-03-18T20:41:14.901Z,13.70
2023-03-18T20:43:41.857Z,13.63
2023-03-18T20:46:14.316Z,13.55
2023-03-18T20:48:42.223Z,13.55
2023-03-18T20:51:31.130Z,13.51
2023-03-18T20:53:58.085Z,13.43
2023-03-18T20:56:26.204Z,13.45
2023-03-18T20:58:53.040Z,13.46
2023-03-18T21:01:19.956Z,13.42
2023-03-18T21:03:46.831Z,13.40
2023-03-18T21:06:16.431Z,13.37
2023-03-18T21:08:43.587Z,13.45
2023-03-18T21:11:21.899Z,13.47
2023-03-18T21:13:49.110Z,13.44
2023-03-18T21:16:16.981Z,13.29
2023-03-18T21:18:47.598Z,13.24
2023-03-18T21:21:24.924Z,13.32
2023-03-18T21:23:53.842Z,13.28
2023-03-18T21:26:22.517Z,13.26
2023-03-18T21:28:50.537Z,13.26
2023-03-18T21:31:31.308Z,13.19
2023-03-18T21:33:58.205Z,13.17
2023-03-18T21:36:25.997Z,13.07
2023-03-18T21:38:52.848Z,13.16
2023-03-18T21:41:28.060Z,13.16
2023-03-18T21:43:55.225Z,13.15
2023-03-18T21:46:26.890Z,13.17
2023-03-18T21:48:54.176Z,13.14
2023-03-18T21:51:40.315Z,13.12
2023-03-18T21:54:19.604Z,13.06
2023-03-18T21:56:46.478Z,13.03
2023-03-18T21:59:13.315Z,13.08
2023-03-18T22:01:40.212Z,13.03
2023-03-18T22:04:07.450Z,13.01
2023-03-18T22:06:34.493Z,12.98
2023-03-18T22:09:01.562Z,12.96
2023-03-18T22:11:28.453Z,12.82
2023-03-18T22:13:55.270Z,12.83
2023-03-18T22:16:22.548Z,12.86
2023-03-18T22:18:51.182Z,12.76
2023-03-18T22:21:26.033Z,12.75
2023-03-18T22:23:53.608Z,12.66
2023-03-18T22:26:21.827Z,12.70
2023-03-18T22:28:50.520Z,12.73
2023-03-18T22:31:23.982Z,12.70
2023-03-18T22:33:51.460Z,12.57
2023-03-18T22:36:21.605Z,12.65
2023-03-18T22:38:49.298Z,12.50
2023-03-18T22:41:24.378Z,12.40
2023-03-18T22:43:51.539Z,12.43
2023-03-18T22:46:18.521Z,12.49
2023-03-18T22:48:45.554Z,12.35
2023-03-18T22:51:29.842Z,12.44
2023-03-18T22:53:56.800Z,12.34
2023-03-18T22:56:23.772Z,12.31
2023-03-18T22:58:51.318Z,12.36
2023-03-18T23:01:21.453Z,12.33
2023-03-18T23:03:48.899Z,12.30
2023-03-18T23:06:19.873Z,12.26
2023-03-18T23:08:46.891Z,12.24
2023-03-18T23:11:14.528Z,12.11
2023-03-18T23:13:44.363Z,12.21
2023-03-18T23:16:17.987Z,12.09
2023-03-18T23:18:45.028Z,12.15
2023-03-18T23:21:21.692Z,12.14
2023-03-18T23:23:49.202Z,12.03
2023-03-18T23:26:16.835Z,11.87
2023-03-18T23:28:45.099Z,11.93
2023-03-18T23:31:14.301Z,11.93
2023-03-18T23:33:41.308Z,12.03
2023-03-18T23:36:08.779Z,11.92
2023-03-18T23:38:37.557Z,12.01
2023-03-18T23:41:04.441Z,11.91
2023-03-18T23:43:31.490Z,11.99
2023-03-18T23:45:58.410Z,11.97
2023-03-18T23:48:25.617Z,11.93
2023-03-18T23:50:52.586Z,11.81
2023-03-18T23:53:19.395Z,11.82
2023-03-18T23:55:49.158Z,11.85
2023-03-18T23:58:16.576Z,11.78
